Time;durP1;ratioP1;P1;durP2;ratioP2;P2;SDS_P1;SDS_P2;PMS_P1;PMS_P2;Temp;Humidity;BMP_temperature;BMP_pressure;BME280_temperature;BME280_humidity;BME280_pressure;Samples;Min_cycle;Max_cycle;Signal;HPM_P1;HPM_P2
2022/11/30 00:00:11;;;;;;;150.70;35.08;;;;;;;5.44;100.00;101929.28;4983455;28;20034;-76
2022/11/30 00:02:39;;;;;;;145.70;36.97;;;;;;;5.41;100.00;101938.03;4971475;28;20030;-75
2022/11/30 00:05:04;;;;;;;167.15;36.13;;;;;;;5.55;100.00;101939.75;4985729;28;20036;-76
2022/11/30 00:07:30;;;;;;;141.00;35.90;;;;;;;5.48;100.00;101941.03;5001827;28;20066;-75
2022/11/30 00:09:55;;;;;;;164.38;37.45;;;;;;;5.59;100.00;101943.78;4988817;28;20036;-75
2022/11/30 00:12:21;;;;;;;153.20;37.20;;;;;;;5.62;100.00;101942.78;4985929;28;20053;-74
2022/11/30 00:14:46;;;;;;;139.10;36.28;;;;;;;5.55;100.00;101936.34;4984679;28;20427;-75
2022/11/30 00:17:13;;;;;;;157.60;37.30;;;;;;;5.61;100.00;101936.81;4987369;28;20045;-75
2022/11/30 00:19:39;;;;;;;139.32;37.25;;;;;;;5.59;100.00;101940.38;4983283;28;20085;-75
2022/11/30 00:22:04;;;;;;;156.63;35.78;;;;;;;5.56;100.00;101938.03;4968026;28;20720;-75
2022/11/30 00:24:30;;;;;;;163.18;37.70;;;;;;;5.61;100.00;101941.13;4988897;28;20088;-75
2022/11/30 00:26:55;;;;;;;135.15;37.22;;;;;;;5.56;100.00;101941.41;4982073;28;20038;-75
2022/11/30 00:29:21;;;;;;;151.63;36.90;;;;;;;5.61;100.00;101941.13;4980815;28;20061;-75
2022/11/30 00:31:47;;;;;;;148.15;35.92;;;;;;;5.58;100.00;101942.16;4984440;28;20057;-75
2022/11/30 00:34:12;;;;;;;163.18;36.63;;;;;;;5.59;100.00;101938.63;4986440;28;20057;-75
2022/11/30 00:36:38;;;;;;;172.95;39.15;;;;;;;5.58;100.00;101942.16;4982883;28;20034;-75
2022/11/30 00:39:03;;;;;;;137.02;33.85;;;;;;;5.63;100.00;101942.69;4998185;28;20026;-75
2022/11/30 00:41:29;;;;;;;166.85;37.92;;;;;;;5.69;100.00;101944.06;5002492;28;20125;-75
2022/11/30 00:43:54;;;;;;;156.90;37.42;;;;;;;5.64;100.00;101946.91;5001828;28;20045;-74
2022/11/30 00:46:20;;;;;;;154.63;37.15;;;;;;;5.65;100.00;101943.41;5000020;28;20976;-76
2022/11/30 00:48:46;;;;;;;163.40;37.65;;;;;;;5.67;100.00;101943.34;5018797;28;20120;-75
2022/11/30 00:51:12;;;;;;;168.00;38.25;;;;;;;5.68;100.00;101947.53;4997936;28;20045;-75
2022/11/30 00:53:38;;;;;;;148.73;36.65;;;;;;;5.71;100.00;101949.09;5003593;28;20034;-75
2022/11/30 00:56:04;;;;;;;138.82;34.05;;;;;;;5.72;100.00;101946.41;4996497;28;20133;-75
2022/11/30 00:58:30;;;;;;;148.00;38.22;;;;;;;5.72;100.00;101943.03;5003204;28;20029;-75
2022/11/30 01:00:55;;;;;;;150.27;37.33;;;;;;;5.74;100.00;101943.75;4985440;28;20530;-75
2022/11/30 01:03:21;;;;;;;155.20;34.70;;;;;;;5.72;100.00;101951.56;4982408;28;20111;-75
2022/11/30 01:05:46;;;;;;;180.15;37.10;;;;;;;5.68;100.00;101944.16;5002714;28;20091;-75
2022/11/30 01:08:12;;;;;;;145.63;35.28;;;;;;;5.73;100.00;101947.25;4992762;28;20030;-75
2022/11/30 01:10:40;;;;;;;154.85;37.33;;;;;;;5.69;100.00;101953.50;5002811;28;20037;-75
2022/11/30 01:13:06;;;;;;;153.15;37.22;;;;;;;5.67;100.00;101948.47;5003192;28;20503;-75
2022/11/30 01:15:38;;;;;;;155.63;36.13;;;;;;;5.67;100.00;101951.06;4985049;28;20042;-75
2022/11/30 01:18:05;;;;;;;174.70;37.80;;;;;;;5.76;100.00;101953.03;4984774;28;20420;-75
2022/11/30 01:20:30;;;;;;;158.05;38.42;;;;;;;5.72;100.00;101961.03;4997957;28;20049;-75
2022/11/30 01:22:56;;;;;;;162.55;37.55;;;;;;;5.71;100.00;101960.22;4972058;28;20026;-75
2022/11/30 01:25:22;;;;;;;166.13;38.38;;;;;;;5.72;100.00;101967.00;5000173;28;20018;-75
2022/11/30 01:27:48;;;;;;;160.70;37.35;;;;;;;5.70;100.00;101968.03;4967194;28;20030;-74
2022/11/30 01:30:14;;;;;;;182.70;39.60;;;;;;;5.73;100.00;101960.13;4966496;28;20030;-75
2022/11/30 01:32:39;;;;;;;156.43;35.10;;;;;;;5.67;100.00;101969.06;4998229;28;20037;-75
2022/11/30 01:35:05;;;;;;;172.48;36.67;;;;;;;5.75;100.00;101966.81;4969019;28;20029;-75
2022/11/30 01:37:31;;;;;;;171.85;39.25;;;;;;;5.78;100.00;101963.22;4971870;28;20073;-75
2022/11/30 01:39:56;;;;;;;181.02;36.05;;;;;;;5.79;100.00;101970.84;5000565;28;20040;-74
2022/11/30 01:42:21;;;;;;;150.50;33.75;;;;;;;5.80;100.00;101966.53;5001556;28;20491;-75
2022/11/30 01:44:53;;;;;;;155.60;35.42;;;;;;;5.73;100.00;101966.09;4987900;28;20037;-76
2022/11/30 01:47:24;;;;;;;190.52;39.70;;;;;;;5.83;100.00;101971.50;5005974;28;20072;-75
2022/11/30 01:49:57;;;;;;;167.32;35.05;;;;;;;5.84;100.00;101978.31;4986956;28;20472;-75
2022/11/30 01:52:40;;;;;;;174.65;37.95;;;;;;;5.80;100.00;101984.53;4962558;28;20111;-75
2022/11/30 01:55:19;;;;;;;157.52;36.00;;;;;;;5.83;100.00;101984.38;5003337;28;20030;-75
2022/11/30 01:58:10;;;;;;;161.02;37.15;;;;;;;5.84;100.00;101991.19;5014283;28;20492;-75
2022/11/30 02:00:36;;;;;;;151.38;37.38;;;;;;;5.81;100.00;101989.59;4996682;28;20508;-75
2022/11/30 02:03:02;;;;;;;160.98;37.58;;;;;;;5.91;100.00;101981.31;4994052;28;20041;-75
2022/11/30 02:05:29;;;;;;;171.82;38.05;;;;;;;5.85;100.00;101985.91;5011412;23;20049;-79
2022/11/30 02:07:54;;;;;;;172.23;35.75;;;;;;;5.85;100.00;101985.09;5005565;28;20017;-80
2022/11/30 02:10:42;;;;;;;179.73;38.25;;;;;;;5.89;100.00;101983.16;5005070;28;20041;-79
2022/11/30 02:13:37;;;;;;;156.15;34.83;;;;;;;5.85;100.00;101988.47;5020712;28;20034;-79
2022/11/30 02:16:16;;;;;;;172.30;38.50;;;;;;;5.91;100.00;101989.03;5003540;28;20125;-79
2022/11/30 02:19:08;;;;;;;225.00;38.67;;;;;;;5.83;100.00;101987.75;4995185;28;20038;-79
2022/11/30 02:21:46;;;;;;;163.43;36.78;;;;;;;5.82;100.00;101980.97;5004642;28;20034;-79
2022/11/30 02:24:29;;;;;;;179.77;38.45;;;;;;;5.85;100.00;101978.19;5003679;28;20049;-79
2022/11/30 02:27:17;;;;;;;154.60;36.38;;;;;;;5.86;100.00;101979.03;4983390;28;20125;-79
2022/11/30 02:30:03;;;;;;;156.55;36.63;;;;;;;5.97;100.00;101976.63;4989560;28;20097;-79
2022/11/30 02:32:33;;;;;;;176.70;37.78;;;;;;;5.95;100.00;101968.19;4984036;28;20034;-78
2022/11/30 02:35:02;;;;;;;156.15;38.20;;;;;;;6.01;100.00;101978.09;5004473;28;20034;-78
2022/11/30 02:37:28;;;;;;;167.45;38.08;;;;;;;6.02;100.00;101981.47;4990737;28;20052;-79
2022/11/30 02:39:54;;;;;;;153.48;35.10;;;;;;;5.96;100.00;101969.81;5001789;28;20034;-78
2022/11/30 02:42:20;;;;;;;164.90;34.38;;;;;;;6.00;100.00;101971.28;5001900;28;20062;-78
2022/11/30 02:44:51;;;;;;;163.02;37.20;;;;;;;6.00;100.00;101967.88;5000149;28;20037;-79
2022/11/30 02:47:23;;;;;;;146.48;36.47;;;;;;;6.04;100.00;101961.59;4972306;28;20085;-78
2022/11/30 02:49:51;;;;;;;145.98;35.00;;;;;;;6.04;100.00;101965.00;4971198;28;20150;-78
2022/11/30 02:52:20;;;;;;;147.15;34.60;;;;;;;6.01;100.00;101974.69;4984867;28;20468;-78
2022/11/30 02:54:45;;;;;;;154.70;34.67;;;;;;;6.14;100.00;101967.84;4969650;28;20044;-79
2022/11/30 02:57:11;;;;;;;153.15;35.53;;;;;;;6.03;100.00;101973.66;4976098;28;20042;-78
2022/11/30 02:59:37;;;;;;;146.90;35.50;;;;;;;5.98;100.00;101970.56;4988458;28;20113;-78
2022/11/30 03:02:03;;;;;;;163.32;36.60;;;;;;;6.03;100.00;101976.25;4969165;28;20053;-79
2022/11/30 03:04:28;;;;;;;124.90;34.13;;;;;;;5.99;100.00;101977.38;4999499;28;20034;-79
2022/11/30 03:06:54;;;;;;;112.10;31.15;;;;;;;5.90;100.00;101977.09;4983495;28;20520;-79
2022/11/30 03:09:19;;;;;;;99.03;29.33;;;;;;;5.87;100.00;101979.84;5002625;28;20037;-78
2022/11/30 03:11:45;;;;;;;83.95;28.25;;;;;;;5.91;100.00;101991.59;4986666;28;20050;-79
2022/11/30 03:14:10;;;;;;;82.13;29.10;;;;;;;5.87;100.00;101988.41;4999806;28;20104;-79
2022/11/30 03:16:37;;;;;;;77.45;27.73;;;;;;;5.79;100.00;101983.72;4987790;28;20054;-78
2022/11/30 03:19:02;;;;;;;77.57;28.25;;;;;;;5.78;100.00;101989.81;5002443;28;20057;-78
2022/11/30 03:21:28;;;;;;;75.28;28.92;;;;;;;5.83;100.00;101986.94;5002820;28;20049;-78
2022/11/30 03:23:53;;;;;;;67.50;27.33;;;;;;;5.78;100.00;101991.53;5001666;28;20038;-79
2022/11/30 03:26:19;;;;;;;66.97;26.27;;;;;;;5.72;100.00;101987.59;4974829;28;20054;-79
2022/11/30 03:28:44;;;;;;;65.43;25.77;;;;;;;5.77;100.00;101989.91;4997683;28;20029;-79
2022/11/30 03:31:11;;;;;;;70.25;26.38;;;;;;;5.72;100.00;101990.16;4992198;28;20050;-78
2022/11/30 03:33:37;;;;;;;69.75;26.45;;;;;;;5.73;100.00;101983.31;4990910;28;20033;-79
2022/11/30 03:36:05;;;;;;;63.83;24.30;;;;;;;5.74;100.00;101982.38;4987570;28;20050;-79
2022/11/30 03:38:31;;;;;;;66.03;27.33;;;;;;;5.75;100.00;101984.03;5007384;28;20029;-79
2022/11/30 03:41:16;;;;;;;62.95;23.55;;;;;;;5.75;100.00;101982.28;4986245;28;20061;-79
2022/11/30 03:43:43;;;;;;;69.20;25.13;;;;;;;5.81;100.00;101978.50;4988943;28;20038;-79
2022/11/30 03:46:09;;;;;;;66.65;25.20;;;;;;;5.72;100.00;101985.03;4984802;28;20100;-78
2022/11/30 03:48:35;;;;;;;67.60;27.00;;;;;;;5.67;100.00;101981.94;5005100;28;20033;-79
2022/11/30 03:51:01;;;;;;;68.25;25.90;;;;;;;5.73;100.00;101985.88;5003640;28;20050;-79
2022/11/30 03:53:26;;;;;;;67.50;26.13;;;;;;;5.69;100.00;101974.94;4990827;28;20026;-79
2022/11/30 03:55:59;;;;;;;69.80;27.52;;;;;;;5.77;100.00;101987.31;5005913;28;20541;-80
2022/11/30 03:58:25;;;;;;;70.82;27.63;;;;;;;5.66;100.00;101978.50;4991209;28;20460;-79
2022/11/30 04:01:02;;;;;;;69.13;25.40;;;;;;;5.72;100.00;101973.91;4987537;28;20513;-78
2022/11/30 04:03:28;;;;;;;63.10;24.77;;;;;;;5.68;100.00;101982.75;5004196;28;20103;-79
2022/11/30 04:05:55;;;;;;;67.20;24.80;;;;;;;5.71;100.00;101977.38;4974852;28;20041;-79
2022/11/30 04:08:20;;;;;;;74.03;27.60;;;;;;;5.64;100.00;101976.97;4989936;28;20021;-79
2022/11/30 04:10:49;;;;;;;66.78;26.52;;;;;;;5.66;100.00;101981.09;4986970;28;20104;-79
2022/11/30 04:13:14;;;;;;;68.28;26.20;;;;;;;5.68;100.00;101982.75;5002847;28;20046;-79
2022/11/30 04:15:40;;;;;;;75.72;27.73;;;;;;;5.78;100.00;101978.66;4982991;28;20049;-80
2022/11/30 04:18:06;;;;;;;72.28;28.83;;;;;;;5.69;100.00;101972.38;4972604;28;20045;-79
2022/11/30 04:20:31;;;;;;;72.07;27.67;;;;;;;5.64;100.00;101980.34;4989547;28;20088;-79
2022/11/30 04:22:57;;;;;;;71.43;26.77;;;;;;;5.63;100.00;101989.00;4988049;28;20408;-80
2022/11/30 04:25:23;;;;;;;71.57;27.50;;;;;;;5.65;100.00;101988.91;5004916;28;20026;-79
2022/11/30 04:27:48;;;;;;;69.85;28.48;;;;;;;5.69;100.00;101986.97;5005680;28;20061;-78
2022/11/30 04:30:14;;;;;;;69.50;27.38;;;;;;;5.68;100.00;101982.75;4970049;28;20042;-79
2022/11/30 04:32:40;;;;;;;63.72;27.02;;;;;;;5.68;100.00;101991.28;5007408;28;20038;-79
2022/11/30 04:35:07;;;;;;;67.38;25.35;;;;;;;5.66;100.00;101993.94;4971923;28;20049;-79
2022/11/30 04:37:32;;;;;;;67.95;27.65;;;;;;;5.68;100.00;101995.63;4997113;28;20064;-80
2022/11/30 04:39:58;;;;;;;68.30;27.33;;;;;;;5.65;100.00;101991.47;4972774;28;20038;-80
2022/11/30 04:42:23;;;;;;;70.45;26.75;;;;;;;5.64;100.00;101998.38;5005375;28;20033;-79
2022/11/30 04:44:49;;;;;;;61.25;25.48;;;;;;;5.64;100.00;102003.50;5006324;28;20443;-80
2022/11/30 04:47:14;;;;;;;66.75;25.92;;;;;;;5.64;100.00;102003.50;5004929;28;20046;-80
2022/11/30 04:49:40;;;;;;;62.40;25.35;;;;;;;5.64;100.00;102003.50;5005403;28;20240;-80
2022/11/30 04:52:05;;;;;;;62.45;26.67;;;;;;;5.63;100.00;102001.88;4992390;28;20811;-80
2022/11/30 04:54:31;;;;;;;62.00;26.45;;;;;;;5.63;100.00;102007.03;5009151;28;20026;-79
2022/11/30 04:56:56;;;;;;;64.30;27.13;;;;;;;5.63;100.00;102012.19;4990951;28;20623;-80
2022/11/30 04:59:22;;;;;;;72.43;27.00;;;;;;;5.62;100.00;102010.50;5002213;28;20031;-79
2022/11/30 05:01:47;;;;;;;73.32;27.83;;;;;;;5.62;100.00;102007.13;4986913;28;20136;-79
2022/11/30 05:04:13;;;;;;;74.55;28.05;;;;;;;5.59;100.00;102020.97;5004232;28;20034;-80
2022/11/30 05:06:38;;;;;;;67.50;28.70;;;;;;;5.57;100.00;102012.53;4976062;28;22483;-80
2022/11/30 05:09:03;;;;;;;61.08;25.20;;;;;;;5.56;100.00;102010.06;4976644;28;20021;-80
2022/11/30 05:11:29;;;;;;;60.85;25.70;;;;;;;5.55;100.00;102019.50;4978342;28;20042;-79
2022/11/30 05:13:54;;;;;;;63.70;26.20;;;;;;;5.54;100.00;102017.03;4993209;28;20037;-79
2022/11/30 05:16:20;;;;;;;64.00;27.38;;;;;;;5.57;100.00;102019.44;4988929;28;20034;-79
2022/11/30 05:18:45;;;;;;;62.22;27.40;;;;;;;5.51;100.00;102010.34;5005449;28;20026;-80
2022/11/30 05:21:11;;;;;;;65.13;27.08;;;;;;;5.56;100.00;102007.50;4972152;28;20046;-80
2022/11/30 05:23:36;;;;;;;67.60;27.20;;;;;;;5.54;100.00;102010.16;4968109;28;20034;-79
2022/11/30 05:26:03;;;;;;;58.58;24.67;;;;;;;5.55;100.00;102010.97;4985210;28;20062;-80
2022/11/30 05:28:28;;;;;;;61.72;25.00;;;;;;;5.57;100.00;102009.13;4994102;28;20091;-79
2022/11/30 05:30:54;;;;;;;65.40;27.75;;;;;;;5.56;100.00;102015.22;4975326;28;20272;-79
2022/11/30 05:33:19;;;;;;;61.28;26.77;;;;;;;5.50;100.00;102008.69;5002253;28;20035;-80
2022/11/30 05:35:45;;;;;;;69.40;27.38;;;;;;;5.46;100.00;102010.63;5007305;28;20057;-79
2022/11/30 05:38:10;;;;;;;62.65;26.40;;;;;;;5.44;100.00;102014.19;5003047;28;20046;-80
2022/11/30 05:40:36;;;;;;;62.85;26.73;;;;;;;5.44;100.00;102007.31;5007590;28;20038;-80
2022/11/30 05:43:03;;;;;;;63.63;26.23;;;;;;;5.46;100.00;102014.94;4986262;28;20022;-80
2022/11/30 05:45:29;;;;;;;59.13;26.25;;;;;;;5.43;100.00;102012.56;5003019;28;20038;-79
2022/11/30 05:47:54;;;;;;;58.70;24.85;;;;;;;5.39;100.00;102018.81;4975585;28;20037;-80
2022/11/30 05:50:20;;;;;;;56.95;26.55;;;;;;;5.40;100.00;102015.31;4988499;28;20041;-79
2022/11/30 05:52:54;;;;;;;59.30;24.58;;;;;;;5.35;100.00;102015.59;5003435;28;20117;-80
2022/11/30 05:55:21;;;;;;;57.42;25.80;;;;;;;5.35;100.00;102015.59;4973290;28;20027;-79
2022/11/30 05:57:46;;;;;;;56.03;25.42;;;;;;;5.33;100.00;102017.44;4993131;28;20041;-79
2022/11/30 06:00:12;;;;;;;58.28;25.08;;;;;;;5.28;100.00;102021.19;5003241;28;20088;-80
2022/11/30 06:02:38;;;;;;;55.47;25.17;;;;;;;5.24;100.00;102023.94;4973880;28;20036;-79
2022/11/30 06:05:03;;;;;;;57.45;26.58;;;;;;;5.22;100.00;102015.50;4980242;28;20034;-80
2022/11/30 06:07:29;;;;;;;60.03;25.35;;;;;;;5.21;100.00;102026.69;5006083;28;20050;-79
2022/11/30 06:09:55;;;;;;;55.65;26.00;;;;;;;5.15;100.00;102033.94;4977899;28;20030;-79
2022/11/30 06:12:20;;;;;;;54.22;25.33;;;;;;;5.08;100.00;102020.63;4988814;28;20045;-79
2022/11/30 06:14:46;;;;;;;58.35;25.92;;;;;;;5.07;100.00;102021.56;4984720;28;20025;-80
2022/11/30 06:17:11;;;;;;;65.57;26.45;;;;;;;5.03;100.00;102020.09;4968277;28;20046;-79
2022/11/30 06:19:36;;;;;;;59.42;26.27;;;;;;;4.99;100.00;102018.59;5002952;28;20029;-80
2022/11/30 06:22:02;;;;;;;52.15;23.25;;;;;;;4.96;100.00;102017.03;4987954;28;20045;-79
2022/11/30 06:24:27;;;;;;;53.72;22.88;;;;;;;4.94;100.00;102020.63;4971247;28;20033;-79
2022/11/30 06:26:53;;;;;;;56.30;23.75;;;;;;;4.93;100.00;102022.34;4976380;28;20049;-78
2022/11/30 06:29:19;;;;;;;52.78;23.63;;;;;;;4.94;100.00;102025.75;4990643;28;20520;-79
2022/11/30 06:31:45;;;;;;;68.70;26.67;;;;;;;4.92;100.00;102023.28;5000662;28;20046;-80
2022/11/30 06:34:10;;;;;;;64.97;27.27;;;;;;;4.90;100.00;102022.53;4987803;28;20033;-79
2022/11/30 06:36:36;;;;;;;64.00;26.13;;;;;;;4.88;100.00;102019.22;4990363;28;20055;-80
2022/11/30 06:39:01;;;;;;;65.57;27.55;;;;;;;4.85;100.00;102025.34;4982923;28;20080;-79
2022/11/30 06:41:27;;;;;;;64.25;27.90;;;;;;;4.82;100.00;102024.72;4988290;28;20267;-79
2022/11/30 06:43:52;;;;;;;54.28;24.30;;;;;;;4.78;100.00;102021.47;5003667;28;20034;-80
2022/11/30 06:46:18;;;;;;;48.22;22.23;;;;;;;4.77;100.00;102024.97;4970676;28;20037;-79
2022/11/30 06:48:47;;;;;;;49.63;23.02;;;;;;;4.73;100.00;102025.22;4985144;28;20084;-79
2022/11/30 06:51:13;;;;;;;46.53;21.25;;;;;;;4.69;100.00;102027.19;5001723;28;20078;-78
2022/11/30 06:53:41;;;;;;;44.85;21.80;;;;;;;4.64;100.00;102029.16;5003876;28;20463;-79
2022/11/30 06:56:06;;;;;;;41.78;20.38;;;;;;;4.61;100.00;102031.91;4978999;28;20049;-79
2022/11/30 06:58:32;;;;;;;42.60;20.10;;;;;;;4.58;100.00;102030.34;4986574;28;20033;-79
2022/11/30 07:00:58;;;;;;;40.28;19.67;;;;;;;4.55;100.00;102032.25;4985852;28;20068;-79
2022/11/30 07:03:24;;;;;;;38.95;18.23;;;;;;;4.51;100.00;102034.16;4986982;28;20030;-79
2022/11/30 07:05:49;;;;;;;40.88;19.27;;;;;;;4.48;100.00;102034.34;5005368;28;20037;-78
2022/11/30 07:08:16;;;;;;;36.95;17.38;;;;;;;4.44;100.00;102025.16;4985109;28;20515;-79
2022/11/30 07:10:46;;;;;;;34.30;17.10;;;;;;;4.41;100.00;102033.88;4989940;28;20046;-78
2022/11/30 07:13:14;;;;;;;37.20;18.17;;;;;;;4.38;100.00;102046.88;5010544;28;20033;-78
2022/11/30 07:15:40;;;;;;;39.38;17.40;;;;;;;4.34;100.00;102037.69;5004428;28;20393;-78
2022/11/30 07:18:06;;;;;;;40.35;18.15;;;;;;;4.32;100.00;102044.66;4992352;28;20035;-78
2022/11/30 07:20:32;;;;;;;45.97;20.42;;;;;;;4.28;100.00;102046.56;4987276;28;20050;-79
2022/11/30 07:26:05;;;;;;;43.88;20.63;;;;;;;4.26;100.00;102047.56;4976036;28;20067;-79
2022/11/30 07:28:27;;;;;;;47.65;20.48;;;;;;;4.23;100.00;102053.66;4988109;28;20030;-79
2022/11/30 07:30:53;;;;;;;43.72;20.00;;;;;;;4.19;100.00;102052.19;4987848;28;20050;-79
2022/11/30 07:33:18;;;;;;;41.20;18.95;;;;;;;4.16;100.00;102051.53;5005894;28;20029;-78
2022/11/30 07:35:44;;;;;;;41.60;18.05;;;;;;;4.13;100.00;102056.84;4988520;28;20045;-79
2022/11/30 07:38:10;;;;;;;42.63;19.80;;;;;;;4.09;100.00;102057.00;4976010;28;20061;-78
2022/11/30 07:40:35;;;;;;;47.33;20.23;;;;;;;4.08;100.00;102059.66;4974493;28;20077;-79
2022/11/30 07:43:01;;;;;;;46.20;19.67;;;;;;;4.04;100.00;102058.97;4990854;28;20095;-79
2022/11/30 07:45:26;;;;;;;50.17;21.70;;;;;;;4.00;100.00;102057.50;5002959;28;20046;-79
2022/11/30 07:47:52;;;;;;;51.47;22.08;;;;;;;4.00;100.00;102054.94;4984729;28;20026;-78
2022/11/30 07:50:17;;;;;;;59.30;23.33;;;;;;;4.01;100.00;102063.44;5008814;28;20030;-78
2022/11/30 07:52:43;;;;;;;58.53;23.60;;;;;;;3.99;100.00;102062.69;4978912;28;20539;-79
2022/11/30 07:55:08;;;;;;;65.82;25.25;;;;;;;4.00;100.00;102062.63;4978568;28;20034;-78
2022/11/30 07:57:34;;;;;;;59.35;25.88;;;;;;;4.03;100.00;102075.31;4974433;28;20037;-78
2022/11/30 07:59:59;;;;;;;55.83;22.75;;;;;;;4.11;100.00;102087.72;4989173;28;20137;-78
2022/11/30 08:02:25;;;;;;;52.75;23.55;;;;;;;4.23;100.00;102083.66;5002451;28;20034;-79
2022/11/30 08:04:51;;;;;;;62.40;26.50;;;;;;;4.22;100.00;102087.13;4989488;23;20041;-76
2022/11/30 08:07:16;;;;;;;61.15;25.65;;;;;;;4.20;100.00;102087.25;5001794;28;20187;-76
2022/11/30 08:09:43;;;;;;;60.40;26.85;;;;;;;4.21;100.00;102088.06;5017093;28;20128;-77
2022/11/30 08:12:09;;;;;;;66.35;28.10;;;;;;;4.29;100.00;102091.03;5023002;28;20081;-76
2022/11/30 08:14:35;;;;;;;64.93;28.75;;;;;;;4.32;100.00;102097.75;5018604;28;20116;-77
2022/11/30 08:17:01;;;;;;;62.70;26.52;;;;;;;4.38;100.00;102095.66;5003710;28;20065;-76
2022/11/30 08:19:26;;;;;;;66.57;29.88;;;;;;;4.38;100.00;102102.56;4987552;28;20038;-77
2022/11/30 08:21:52;;;;;;;56.08;26.95;;;;;;;4.34;100.00;102106.19;5002310;28;20747;-77
2022/11/30 08:24:18;;;;;;;69.50;29.35;;;;;;;4.38;100.00;102111.06;4987062;28;20314;-76
2022/11/30 08:26:43;;;;;;;68.53;29.13;;;;;;;4.50;100.00;102101.84;5003037;28;20617;-76
2022/11/30 08:29:12;;;;;;;66.43;28.73;;;;;;;4.49;100.00;102110.50;4996249;28;20056;-77
2022/11/30 08:31:38;;;;;;;72.82;30.92;;;;;;;4.58;100.00;102111.75;5001417;28;20053;-76
2022/11/30 08:34:07;;;;;;;65.70;28.23;;;;;;;4.52;100.00;102122.34;4999179;28;20184;-77
2022/11/30 08:36:33;;;;;;;60.08;28.13;;;;;;;4.49;100.00;102121.59;5003923;28;20573;-76
2022/11/30 08:39:01;;;;;;;73.95;28.38;;;;;;;4.53;100.00;102122.25;5006230;28;20034;-76
2022/11/30 08:41:27;;;;;;;65.45;28.17;;;;;;;4.49;100.00;102125.91;4999354;28;20054;-77
2022/11/30 08:43:53;;;;;;;69.85;29.27;;;;;;;4.49;100.00;102121.59;5004289;28;20179;-76
2022/11/30 08:46:20;;;;;;;67.40;27.58;;;;;;;4.61;100.00;102124.41;4999447;28;20054;-77
2022/11/30 08:48:46;;;;;;;71.63;28.30;;;;;;;4.67;100.00;102119.75;5003698;28;20029;-77
2022/11/30 08:51:14;;;;;;;61.22;27.10;;;;;;;4.57;100.00;102128.88;5003051;28;20080;-77
2022/11/30 08:53:39;;;;;;;63.30;27.27;;;;;;;4.51;100.00;102133.53;4986489;28;20033;-76
2022/11/30 08:56:09;;;;;;;68.35;28.55;;;;;;;4.57;100.00;102130.63;4977630;28;20179;-76
2022/11/30 08:58:37;;;;;;;70.22;28.77;;;;;;;4.49;100.00;102131.88;4997315;28;20112;-77
2022/11/30 09:01:17;;;;;;;70.30;27.98;;;;;;;4.52;100.00;102128.31;5003659;28;20129;-77
2022/11/30 09:03:45;;;;;;;67.13;27.77;;;;;;;4.44;100.00;102135.59;4984128;28;20038;-76
2022/11/30 09:06:13;;;;;;;61.00;26.58;;;;;;;4.48;100.00;102140.50;4978923;28;20141;-76
2022/11/30 09:08:43;;;;;;;69.63;26.77;;;;;;;4.43;100.00;102137.34;5003071;28;20038;-76
2022/11/30 09:11:13;;;;;;;73.38;28.38;;;;;;;4.54;100.00;102136.78;4986632;28;20053;-76
2022/11/30 09:13:40;;;;;;;68.38;27.40;;;;;;;4.59;100.00;102134.75;4992559;28;20034;-76
2022/11/30 09:16:06;;;;;;;69.40;28.70;;;;;;;4.68;100.00;102133.44;5001631;28;20042;-76
2022/11/30 09:18:32;;;;;;;66.38;26.65;;;;;;;4.62;100.00;102128.63;4999247;28;20030;-76
2022/11/30 09:21:06;;;;;;;68.35;28.40;;;;;;;4.65;100.00;102125.88;4987148;28;20091;-77
2022/11/30 09:23:31;;;;;;;62.33;27.85;;;;;;;4.65;100.00;102124.16;4995551;28;20062;-76
2022/11/30 09:25:59;;;;;;;63.95;28.30;;;;;;;4.61;100.00;102125.22;4999065;28;20080;-77
2022/11/30 09:28:25;;;;;;;65.35;26.98;;;;;;;4.70;100.00;102123.06;5004056;28;20037;-76
2022/11/30 09:30:52;;;;;;;64.50;28.83;;;;;;;4.66;100.00;102128.38;4982866;28;20547;-76
2022/11/30 09:33:18;;;;;;;64.07;27.35;;;;;;;4.59;100.00;102131.38;5001848;28;20511;-74
2022/11/30 09:35:52;;;;;;;62.58;25.40;;;;;;;4.59;100.00;102139.91;4987393;28;20033;-75
2022/11/30 09:38:18;;;;;;;62.00;26.73;;;;;;;4.57;100.00;102133.19;4968099;28;20142;-74
2022/11/30 09:40:45;;;;;;;70.82;28.50;;;;;;;4.56;100.00;102137.50;4998106;28;20668;-75
2022/11/30 09:43:52;;;;;;;60.63;24.67;;;;;;;4.62;100.00;102136.34;5001379;28;20112;-75
2022/11/30 09:46:24;;;;;;;64.88;26.50;;;;;;;4.65;100.00;102138.72;4982994;28;20050;-74
2022/11/30 09:49:14;;;;;;;65.93;28.03;;;;;;;4.76;100.00;102126.13;4985905;28;20462;-75
2022/11/30 09:51:45;;;;;;;65.97;27.42;;;;;;;4.78;100.00;102126.03;5001607;28;21057;-74
2022/11/30 09:54:34;;;;;;;61.55;26.38;;;;;;;4.80;100.00;102129.34;5001456;28;20037;-74
2022/11/30 09:57:04;;;;;;;70.47;26.33;;;;;;;4.82;100.00;102130.94;5001534;28;20049;-75
2022/11/30 09:59:35;;;;;;;59.00;26.02;;;;;;;4.80;100.00;102125.06;4990955;28;20104;-75
2022/11/30 10:02:12;;;;;;;69.05;27.95;;;;;;;4.80;100.00;102131.91;4984982;28;20045;-76
2022/11/30 10:04:38;;;;;;;68.15;27.48;;;;;;;4.81;100.00;102131.84;5000763;28;20995;-74
2022/11/30 10:07:29;;;;;;;63.50;26.70;;;;;;;4.78;100.00;102128.59;4984195;28;20048;-74
2022/11/30 10:10:23;;;;;;;68.95;27.85;;;;;;;4.77;100.00;102127.78;4998703;28;20057;-75
2022/11/30 10:13:22;;;;;;;72.97;28.77;;;;;;;4.77;100.00;102120.06;4983473;28;20041;-75
2022/11/30 10:16:14;;;;;;;72.63;27.15;;;;;;;4.79;100.00;102122.56;5001906;28;20050;-74
2022/11/30 10:19:13;;;;;;;65.97;27.23;;;;;;;4.85;100.00;102127.34;4982526;28;20479;-75
2022/11/30 10:22:00;;;;;;;65.20;27.67;;;;;;;4.83;100.00;102122.28;4981179;28;20396;-75
2022/11/30 10:24:48;;;;;;;69.70;27.08;;;;;;;4.85;100.00;102124.78;4985481;28;20144;-75
2022/11/30 10:27:17;;;;;;;73.05;27.25;;;;;;;4.88;100.00;102124.63;5001125;28;20041;-74
2022/11/30 10:29:43;;;;;;;64.20;27.05;;;;;;;4.90;100.00;102120.22;5001707;28;20543;-75
2022/11/30 10:32:37;;;;;;;67.57;26.67;;;;;;;4.94;100.00;102126.00;4997695;28;20046;-75
2022/11/30 10:35:33;;;;;;;70.88;28.02;;;;;;;5.01;100.00;102122.16;5003942;28;20487;-74
2022/11/30 10:38:11;;;;;;;65.93;27.27;;;;;;;4.95;100.00;102117.38;4982158;28;20050;-74
2022/11/30 10:40:42;;;;;;;65.72;26.90;;;;;;;4.98;100.00;102122.34;5001034;28;20045;-75
2022/11/30 10:43:26;;;;;;;68.95;27.05;;;;;;;4.99;100.00;102126.56;5006191;28;20038;-75
2022/11/30 10:45:52;;;;;;;67.70;27.60;;;;;;;5.10;100.00;102120.81;5003172;28;20068;-74
2022/11/30 10:48:23;;;;;;;68.18;27.35;;;;;;;5.09;100.00;102109.72;5005342;28;20034;-75
2022/11/30 10:50:49;;;;;;;69.80;28.75;;;;;;;5.10;100.00;102113.91;5001408;28;20034;-75
2022/11/30 10:53:14;;;;;;;67.18;26.58;;;;;;;5.17;100.00;102114.41;5004181;28;20095;-74
2022/11/30 10:55:49;;;;;;;63.15;26.33;;;;;;;5.13;100.00;102108.63;4987717;28;20443;-75
2022/11/30 10:58:17;;;;;;;64.70;26.77;;;;;;;5.18;100.00;102108.34;5005500;28;20025;-75
2022/11/30 11:00:57;;;;;;;67.20;26.00;;;;;;;5.26;100.00;102101.03;4987086;28;20057;-74
2022/11/30 11:03:24;;;;;;;60.25;26.88;;;;;;;5.24;100.00;102108.00;4982926;28;20040;-74
2022/11/30 11:06:09;;;;;;;67.57;26.85;;;;;;;5.26;100.00;102106.97;4988657;28;20041;-75
2022/11/30 11:08:35;;;;;;;69.75;28.05;;;;;;;5.37;100.00;102110.66;5008317;28;20048;-75
2022/11/30 11:11:00;;;;;;;66.78;26.48;;;;;;;5.34;100.00;102111.69;4989179;28;20492;-74
2022/11/30 11:13:41;;;;;;;67.07;25.38;;;;;;;5.38;100.00;102107.19;5001649;28;20108;-73
2022/11/30 11:16:09;;;;;;;64.75;26.40;;;;;;;5.37;100.00;102105.50;4982388;28;20385;-75